Time;durP1;ratioP1;P1;durP2;ratioP2;P2;SDS_P1;SDS_P2;PMS_P1;PMS_P2;Temp;Humidity;BMP_temperature;BMP_pressure;BME280_temperature;BME280_humidity;BME280_pressure;Samples;Min_cycle;Max_cycle;Signal;HPM_P1;HPM_P2
2022/07/31 00:02:09;;;;;;;13.13;10.35;;;;;;;18.57;100.00;63925.78;5044070;28;20222;-75
2022/07/31 00:04:36;;;;;;;13.35;11.40;;;;;;;18.55;100.00;63913.38;5043891;28;20212;-75
2022/07/31 00:07:03;;;;;;;12.35;11.13;;;;;;;18.49;100.00;63912.28;5044626;28;20271;-77
2022/07/31 00:09:30;;;;;;;15.70;11.38;;;;;;;18.47;100.00;63910.22;5044484;28;20217;-77
2022/07/31 00:11:57;;;;;;;12.45;11.15;;;;;;;18.47;100.00;63912.78;5043910;28;20275;-76
2022/07/31 00:14:23;;;;;;;13.57;11.65;;;;;;;18.50;100.00;63912.81;5043726;28;20225;-76
2022/07/31 00:16:52;;;;;;;12.98;11.55;;;;;;;18.46;100.00;63906.59;5044462;28;20368;-76
2022/07/31 00:19:18;;;;;;;14.02;11.85;;;;;;;18.45;100.00;63905.53;5045112;28;20248;-75
2022/07/31 00:21:45;;;;;;;13.38;12.05;;;;;;;18.41;100.00;63903.97;5045527;28;20204;-76
2022/07/31 00:24:13;;;;;;;14.63;12.63;;;;;;;18.38;100.00;63898.75;5044463;28;20208;-75
2022/07/31 00:26:40;;;;;;;14.57;12.65;;;;;;;18.39;100.00;63902.38;5046980;28;20253;-75
2022/07/31 00:29:09;;;;;;;14.05;12.23;;;;;;;18.37;100.00;63897.19;5045153;28;20197;-77
2022/07/31 00:31:36;;;;;;;17.33;12.10;;;;;;;18.40;100.00;63905.50;5044436;28;20202;-77
2022/07/31 00:34:05;;;;;;;14.85;13.25;;;;;;;18.36;100.00;63896.66;5044177;28;20269;-76
2022/07/31 00:36:46;;;;;;;14.93;12.70;;;;;;;18.30;100.00;63890.44;5044559;28;20240;-77
2022/07/31 00:40:18;;;;;;;;;;;;;;;;;;;;;
2022/07/31 00:47:21;;;;;;;15.73;12.88;;;;;;;18.01;100.00;63862.78;5020412;28;20197;-76
2022/07/31 01:00:43;;;;;;;16.50;12.23;;;;;;;17.73;100.00;63833.63;4920696;22;20245;-76
2022/07/31 01:03:10;;;;;;;16.05;11.15;;;;;;;17.69;100.00;63831.53;5023057;28;20395;-77
2022/07/31 01:05:38;;;;;;;15.75;12.02;;;;;;;17.62;100.00;63819.06;5022903;28;20205;-76
2022/07/31 01:08:05;;;;;;;14.82;11.23;;;;;;;17.54;100.00;63811.25;5023145;28;20286;-76
2022/07/31 01:10:43;;;;;;;13.80;11.88;;;;;;;17.59;100.00;63815.94;5023471;28;20502;-76
2022/07/31 01:13:16;;;;;;;16.42;12.80;;;;;;;17.55;100.00;63814.38;5022877;28;20237;-77
2022/07/31 01:15:46;;;;;;;14.30;11.30;;;;;;;17.48;100.00;63810.16;5022994;28;20280;-77
2022/07/31 01:18:16;;;;;;;14.77;12.10;;;;;;;17.47;100.00;63803.97;5023366;28;20225;-76
2022/07/31 01:20:45;;;;;;;12.55;11.15;;;;;;;17.41;100.00;63795.13;5023359;28;20194;-77
2022/07/31 01:23:31;;;;;;;11.88;9.68;;;;;;;17.42;100.00;63800.78;5022874;28;20222;-75
2022/07/31 01:26:09;;;;;;;15.35;10.48;;;;;;;17.34;100.00;63795.56;5023281;28;20190;-75
2022/07/31 01:29:00;;;;;;;13.68;10.85;;;;;;;17.40;100.00;63793.56;5022991;28;20396;-76
2022/07/31 01:31:33;;;;;;;14.60;12.02;;;;;;;17.31;100.00;63787.81;5023075;28;20497;-76
2022/07/31 01:34:07;;;;;;;11.40;10.25;;;;;;;17.32;100.00;63791.41;5023112;28;20297;-77
2022/07/31 01:36:36;;;;;;;13.02;10.93;;;;;;;17.26;100.00;63789.81;5022875;28;20253;-76
2022/07/31 01:39:04;;;;;;;13.90;10.25;;;;;;;17.26;100.00;63785.19;5022837;28;20416;-77
2022/07/31 01:41:37;;;;;;;18.83;10.38;;;;;;;17.27;100.00;63783.13;5022562;28;20218;-77
2022/07/31 01:44:08;;;;;;;10.93;9.82;;;;;;;17.32;100.00;63790.91;5023035;28;20440;-76
2022/07/31 01:46:35;;;;;;;11.98;10.70;;;;;;;17.29;100.00;63787.78;5022713;28;20195;-76
2022/07/31 01:49:03;;;;;;;12.23;10.63;;;;;;;17.27;100.00;63783.13;5023125;28;20198;-75
2022/07/31 01:51:32;;;;;;;11.52;10.38;;;;;;;17.29;100.00;63783.16;5022467;28;20198;-76
2022/07/31 01:54:01;;;;;;;11.32;10.10;;;;;;;17.24;100.00;63780.00;5022635;28;20253;-76
2022/07/31 01:56:31;;;;;;;12.55;10.38;;;;;;;17.22;100.00;63783.09;5022883;28;20226;-76
2022/07/31 01:59:00;;;;;;;11.50;10.18;;;;;;;17.17;100.00;63773.25;5025395;28;20198;-77
2022/07/31 02:01:30;;;;;;;15.52;10.55;;;;;;;17.15;100.00;63773.22;5027290;28;20233;-76
2022/07/31 02:03:58;;;;;;;15.30;11.10;;;;;;;17.15;100.00;63775.78;5030955;28;20205;-76
2022/07/31 02:06:26;;;;;;;11.40;10.30;;;;;;;17.19;100.00;63777.38;5030541;28;20202;-76
2022/07/31 02:08:55;;;;;;;11.15;10.00;;;;;;;17.17;100.00;63773.25;5029969;28;20386;-77
2022/07/31 02:11:23;;;;;;;15.02;10.75;;;;;;;17.19;100.00;63772.75;5028814;28;20260;-77
2022/07/31 02:13:52;;;;;;;13.18;10.30;;;;;;;17.21;100.00;63779.44;5030402;28;20256;-77
2022/07/31 02:16:20;;;;;;;11.45;10.35;;;;;;;17.23;100.00;63776.38;5027791;28;20238;-76
2022/07/31 02:18:51;;;;;;;12.48;10.75;;;;;;;17.20;100.00;63778.94;5027214;28;20292;-75
2022/07/31 02:21:18;;;;;;;14.70;10.15;;;;;;;17.20;100.00;63773.28;5027732;28;20226;-74
2022/07/31 02:23:45;;;;;;;12.13;10.30;;;;;;;17.20;100.00;63781.00;5027025;28;20222;-77
2022/07/31 02:26:13;;;;;;;10.95;9.98;;;;;;;17.19;100.00;63772.75;5019115;28;20254;-76
2022/07/31 02:28:43;;;;;;;11.63;9.68;;;;;;;17.17;100.00;63773.25;5006652;28;20238;-76
2022/07/31 02:31:12;;;;;;;10.40;9.48;;;;;;;17.15;100.00;63771.16;5006858;28;20225;-76
2022/07/31 02:33:42;;;;;;;11.40;9.85;;;;;;;17.13;100.00;63769.09;5006293;28;20238;-76
2022/07/31 02:36:12;;;;;;;11.30;9.98;;;;;;;17.12;100.00;63770.59;5006244;28;20206;-76
2022/07/31 02:38:40;;;;;;;17.33;10.20;;;;;;;17.14;100.00;63772.69;5006093;28;20219;-75
2022/07/31 02:41:10;;;;;;;10.80;9.55;;;;;;;17.10;100.00;63765.44;5005949;28;20264;-76
2022/07/31 02:43:37;;;;;;;11.48;9.65;;;;;;;17.15;100.00;63773.22;5006223;28;20215;-75
2022/07/31 02:46:05;;;;;;;12.10;9.98;;;;;;;17.19;100.00;63775.31;5005944;28;20199;-76
2022/07/31 02:48:32;;;;;;;11.45;9.25;;;;;;;17.20;100.00;63776.34;5005709;28;20353;-75
2022/07/31 02:50:59;;;;;;;10.70;9.45;;;;;;;17.23;100.00;63781.53;5005705;28;20210;-75
2022/07/31 02:53:29;;;;;;;12.30;9.13;;;;;;;17.23;100.00;63779.50;5005476;28;20277;-76
2022/07/31 02:55:57;;;;;;;11.50;8.90;;;;;;;17.20;100.00;63781.50;5006861;28;20198;-74
2022/07/31 02:58:23;;;;;;;10.60;9.38;;;;;;;17.28;100.00;63784.16;5007760;28;20230;-74
2022/07/31 03:00:59;;;;;;;11.60;9.38;;;;;;;17.40;100.00;63796.66;5007928;28;20207;-75
2022/07/31 03:03:26;;;;;;;11.45;10.27;;;;;;;17.45;100.00;63804.44;5007071;28;20318;-76
2022/07/31 03:05:54;;;;;;;10.20;8.95;;;;;;;17.53;100.00;63809.69;5006831;28;20207;-75
2022/07/31 03:08:21;;;;;;;11.90;9.38;;;;;;;17.63;100.00;63825.78;5006183;28;20290;-76
2022/07/31 03:10:49;;;;;;;10.50;9.38;;;;;;;17.70;100.00;63829.97;5004997;28;20205;-76
2022/07/31 03:13:18;;;;;;;11.10;9.95;;;;;;;17.85;100.00;63845.59;5005299;28;20328;-75
2022/07/31 03:15:46;;;;;;;14.38;8.88;;;;;;;17.88;100.00;63849.25;5005500;28;20238;-76
2022/07/31 03:18:15;;;;;;;16.38;11.68;;;;;;;17.91;100.00;63849.78;5005459;28;20221;-76
2022/07/31 03:20:43;;;;;;;14.35;12.43;;;;;;;17.99;100.00;63857.59;5005680;28;20203;-75
2022/07/31 03:23:12;;;;;;;14.30;12.32;;;;;;;18.03;100.00;63864.34;5005073;28;20215;-75
2022/07/31 03:25:41;;;;;;;15.43;12.93;;;;;;;18.09;100.00;63865.97;5009100;28;20379;-77
2022/07/31 03:28:09;;;;;;;16.38;13.02;;;;;;;18.13;100.00;63874.75;5025002;28;20217;-76
2022/07/31 03:30:36;;;;;;;14.65;13.15;;;;;;;18.14;100.00;63873.75;5024948;28;20201;-77
2022/07/31 03:33:03;;;;;;;21.58;13.13;;;;;;;18.05;100.00;63863.88;5025015;28;20262;-76
2022/07/31 03:35:30;;;;;;;21.77;13.70;;;;;;;18.21;100.00;63883.09;5024572;28;20202;-75
2022/07/31 03:37:57;;;;;;;19.17;15.80;;;;;;;18.21;100.00;63883.09;5024871;28;20218;-78
2022/07/31 03:40:25;;;;;;;22.02;16.98;;;;;;;18.27;100.00;63889.88;5024702;28;20202;-76
2022/07/31 03:42:53;;;;;;;20.23;16.25;;;;;;;18.30;100.00;63895.59;5024448;28;20226;-75
2022/07/31 03:45:22;;;;;;;25.67;17.10;;;;;;;18.31;100.00;63890.94;5024673;28;20236;-76
2022/07/31 03:47:50;;;;;;;25.20;18.85;;;;;;;18.09;100.00;63868.00;5024328;28;20209;-76
2022/07/31 03:50:17;;;;;;;29.95;20.15;;;;;;;18.19;100.00;63881.00;5024791;28;20202;-78
2022/07/31 03:52:46;;;;;;;28.23;20.30;;;;;;;18.30;100.00;63889.91;5023955;28;20218;-75
2022/07/31 03:55:14;;;;;;;23.02;18.67;;;;;;;18.35;100.00;63898.22;5024895;28;20196;-77
2022/07/31 03:57:41;;;;;;;23.75;19.75;;;;;;;18.48;100.00;63908.16;5024570;28;20226;-76
2022/07/31 04:00:10;;;;;;;26.75;19.92;;;;;;;18.40;100.00;63905.50;5024293;28;20251;-76
2022/07/31 04:02:38;;;;;;;26.95;21.27;;;;;;;18.43;100.00;63906.56;5024583;28;20241;-77
2022/07/31 04:05:06;;;;;;;23.98;18.67;;;;;;;18.50;100.00;63918.50;5024529;28;20198;-74
2022/07/31 04:07:33;;;;;;;23.38;18.30;;;;;;;18.58;100.00;63921.16;5025216;28;20217;-75
2022/07/31 04:10:01;;;;;;;24.52;18.83;;;;;;;18.15;100.00;63872.22;5025026;28;20197;-77
2022/07/31 04:12:28;;;;;;;23.58;19.42;;;;;;;17.95;100.00;63856.00;5024893;28;20217;-76
2022/07/31 04:14:55;;;;;;;25.27;20.02;;;;;;;17.85;100.00;63843.53;5024536;28;20279;-76
2022/07/31 04:17:22;;;;;;;24.77;20.20;;;;;;;17.78;100.00;63836.25;5024028;28;20214;-75
2022/07/31 04:19:51;;;;;;;28.88;22.10;;;;;;;17.52;100.00;63814.31;5024196;28;20198;-76
2022/07/31 04:22:17;;;;;;;28.90;21.75;;;;;;;17.26;100.00;63787.22;5023453;28;20221;-75
2022/07/31 04:24:44;;;;;;;29.67;22.27;;;;;;;17.10;100.00;63768.53;5023905;28;20402;-76
2022/07/31 04:27:11;;;;;;;30.95;21.90;;;;;;;17.14;100.00;63772.16;5007868;28;20536;-77
2022/07/31 04:29:38;;;;;;;21.85;19.02;;;;;;;17.16;100.00;63771.69;5006327;28;20202;-76
2022/07/31 04:32:05;;;;;;;21.77;18.70;;;;;;;17.18;100.00;63776.88;5024125;28;20228;-77
2022/07/31 04:34:32;;;;;;;25.70;19.95;;;;;;;17.38;100.00;63796.66;5023577;28;20287;-75
2022/07/31 04:37:00;;;;;;;23.38;18.40;;;;;;;17.39;100.00;63798.19;5023575;28;20281;-76
2022/07/31 04:39:27;;;;;;;22.38;18.25;;;;;;;17.53;100.00;63812.28;5023571;28;20205;-76
2022/07/31 04:41:55;;;;;;;19.00;16.80;;;;;;;17.65;100.00;63822.72;5023443;28;20232;-76
2022/07/31 04:44:22;;;;;;;19.80;15.65;;;;;;;17.74;100.00;63831.56;5023547;28;20218;-76
2022/07/31 04:46:49;;;;;;;16.75;14.65;;;;;;;17.93;100.00;63854.44;5023368;28;20273;-76
2022/07/31 04:49:16;;;;;;;15.60;13.73;;;;;;;17.71;100.00;63823.81;5022761;28;20198;-75
2022/07/31 04:51:43;;;;;;;17.38;14.05;;;;;;;18.17;100.00;63881.53;5022252;28;20208;-76
2022/07/31 04:54:12;;;;;;;14.20;12.48;;;;;;;18.48;100.00;63911.25;5023288;28;20233;-76
2022/07/31 04:56:42;;;;;;;14.98;13.45;;;;;;;18.59;100.00;63925.28;5023355;28;20201;-76
2022/07/31 04:59:10;;;;;;;15.00;12.00;;;;;;;18.71;100.00;63932.13;5023577;28;20186;-76
2022/07/31 05:01:38;;;;;;;13.13;11.77;;;;;;;18.95;100.00;63959.72;5022857;28;20233;-76
2022/07/31 05:04:07;;;;;;;16.25;11.55;;;;;;;19.08;100.00;63971.22;5023428;28;20206;-76
2022/07/31 05:06:38;;;;;;;13.52;11.50;;;;;;;19.12;100.00;63972.78;5023415;28;20491;-75
2022/07/31 05:09:05;;;;;;;12.35;10.57;;;;;;;19.26;100.00;63989.97;5023243;28;20199;-76
2022/07/31 05:11:34;;;;;;;10.80;9.73;;;;;;;19.17;100.00;63982.66;5023302;28;20284;-74
2022/07/31 05:14:04;;;;;;;11.05;9.88;;;;;;;18.99;100.00;63961.31;5023006;28;20237;-75
2022/07/31 05:16:31;;;;;;;10.63;9.73;;;;;;;18.81;100.00;63945.63;5023635;28;20194;-75
2022/07/31 05:18:58;;;;;;;11.35;9.02;;;;;;;18.66;100.00;63926.91;5023352;28;20301;-76
2022/07/31 05:21:27;;;;;;;10.52;9.48;;;;;;;18.75;100.00;63936.28;5023220;28;20194;-76
2022/07/31 05:23:54;;;;;;;9.90;9.00;;;;;;;18.71;100.00;63932.63;5023006;28;20253;-75
2022/07/31 05:26:21;;;;;;;9.52;8.55;;;;;;;18.66;100.00;63930.00;5023367;28;20222;-76
2022/07/31 05:28:50;;;;;;;8.88;7.50;;;;;;;18.74;100.00;63940.94;5022792;28;20218;-76
2022/07/31 05:31:18;;;;;;;9.23;7.32;;;;;;;18.83;100.00;63947.19;5023270;28;20266;-76
2022/07/31 05:33:47;;;;;;;6.80;6.30;;;;;;;18.93;100.00;63960.22;5025397;28;20243;-73
2022/07/31 05:36:14;;;;;;;8.25;7.47;;;;;;;18.89;100.00;63954.00;5028054;28;20269;-75
2022/07/31 05:38:41;;;;;;;12.57;9.02;;;;;;;18.96;100.00;63956.13;5027859;28;20222;-75
2022/07/31 05:41:09;;;;;;;15.48;12.05;;;;;;;18.92;100.00;63954.53;5027184;28;20217;-74
2022/07/31 05:43:36;;;;;;;17.83;12.57;;;;;;;19.00;100.00;63967.53;5027453;28;20264;-75
2022/07/31 05:46:05;;;;;;;18.27;12.45;;;;;;;18.95;100.00;63957.66;5027165;28;20198;-74
2022/07/31 05:48:32;;;;;;;14.55;11.88;;;;;;;18.87;100.00;63951.91;5027264;28;20245;-75
2022/07/31 05:50:59;;;;;;;15.43;12.30;;;;;;;19.03;100.00;63968.59;5027125;28;20202;-76
2022/07/31 05:53:27;;;;;;;11.90;9.77;;;;;;;18.96;100.00;63958.19;5026816;28;20381;-76
2022/07/31 05:55:54;;;;;;;14.13;12.02;;;;;;;19.11;100.00;63981.56;5027073;28;20301;-77
2022/07/31 05:58:21;;;;;;;13.93;10.98;;;;;;;19.24;100.00;63990.47;5027162;28;20515;-76
2022/07/31 06:00:49;;;;;;;12.60;10.30;;;;;;;19.28;100.00;63991.53;5029038;28;20389;-76
2022/07/31 06:03:23;;;;;;;14.48;11.13;;;;;;;19.38;100.00;64005.09;5027441;28;20475;-75
2022/07/31 06:05:50;;;;;;;13.75;11.00;;;;;;;19.49;100.00;64019.16;5030416;28;20202;-75
2022/07/31 06:08:17;;;;;;;13.02;10.85;;;;;;;19.58;100.00;64024.91;5030871;28;20439;-76
2022/07/31 06:10:44;;;;;;;14.88;11.25;;;;;;;19.86;100.00;64054.66;5029889;28;20487;-75
2022/07/31 06:13:13;;;;;;;12.20;10.57;;;;;;;19.83;100.00;64046.34;5027208;28;20511;-75
2022/07/31 06:15:40;;;;;;;12.60;9.85;;;;;;;19.80;100.00;64047.84;5027116;28;20233;-75
2022/07/31 06:18:07;;;;;;;11.75;9.75;;;;;;;19.94;100.00;64060.41;5026875;28;20218;-75
2022/07/31 06:20:36;;;;;;;13.98;10.23;;;;;;;20.07;100.00;64076.53;5027370;28;20197;-78
2022/07/31 06:23:03;;;;;;;13.10;10.32;;;;;;;20.14;100.00;64089.03;5026596;28;20439;-76
2022/07/31 06:25:30;;;;;;;10.55;9.45;;;;;;;20.52;100.00;64123.53;5024825;28;20237;-74
2022/07/31 06:27:57;;;;;;;11.18;9.95;;;;;;;20.49;100.00;64119.88;5006887;28;20268;-75
2022/07/31 06:30:24;;;;;;;13.60;10.65;;;;;;;20.59;100.00;64128.25;5006789;28;20249;-76
2022/07/31 06:32:50;;;;;;;13.18;10.52;;;;;;;20.68;100.00;64135.06;5006865;28;20295;-75
2022/07/31 06:35:17;;;;;;;12.18;10.73;;;;;;;20.79;100.00;64148.63;5006638;28;20285;-76
2022/07/31 06:37:46;;;;;;;12.95;11.57;;;;;;;21.01;100.00;64174.19;5006694;28;20219;-76
2022/07/31 06:40:13;;;;;;;12.55;10.70;;;;;;;20.82;100.00;64148.63;5007365;28;20199;-76
2022/07/31 06:42:40;;;;;;;12.57;10.65;;;;;;;20.76;100.00;64148.06;5006827;28;20293;-76
2022/07/31 06:45:09;;;;;;;14.10;10.27;;;;;;;20.76;100.00;64150.66;5006366;28;20195;-77
2022/07/31 06:47:35;;;;;;;11.88;10.55;;;;;;;20.77;100.00;64149.13;5006434;28;20278;-75
2022/07/31 06:50:04;;;;;;;14.20;10.02;;;;;;;20.51;100.00;64122.50;5010186;28;20538;-75
2022/07/31 06:52:31;;;;;;;12.40;11.18;;;;;;;20.66;100.00;64138.16;5009588;28;20540;-77
2022/07/31 06:55:00;;;;;;;16.92;11.45;;;;;;;20.86;100.00;64155.94;5007180;28;20249;-75
2022/07/31 06:57:27;;;;;;;12.98;11.43;;;;;;;20.96;100.00;64168.44;5006800;28;20265;-76
2022/07/31 06:59:53;;;;;;;13.30;10.90;;;;;;;20.71;100.00;64142.84;5006506;28;20214;-76
2022/07/31 07:02:20;;;;;;;13.75;11.45;;;;;;;20.69;100.00;64141.28;5006384;28;20504;-76
2022/07/31 07:04:47;;;;;;;13.63;10.93;;;;;;;20.85;100.00;64156.94;5006661;28;20199;-75
2022/07/31 07:07:15;;;;;;;17.35;11.52;;;;;;;20.72;100.00;64143.38;5005745;28;20225;-76
2022/07/31 07:09:42;;;;;;;13.60;11.38;;;;;;;20.75;100.00;64144.44;5006471;28;20273;-76
2022/07/31 07:12:10;;;;;;;14.43;12.00;;;;;;;20.78;100.00;64152.75;5006921;28;20219;-75
2022/07/31 07:14:37;;;;;;;16.45;13.23;;;;;;;21.06;100.00;64182.00;5006503;28;20297;-74
2022/07/31 07:17:04;;;;;;;12.32;10.73;;;;;;;21.01;100.00;64171.59;5006060;28;20214;-74
2022/07/31 07:19:31;;;;;;;14.02;12.05;;;;;;;21.20;100.00;64196.09;5006554;28;20399;-75
2022/07/31 07:21:58;;;;;;;16.33;11.90;;;;;;;21.31;100.00;64197.75;5006123;28;20254;-77
2022/07/31 07:24:26;;;;;;;14.27;11.40;;;;;;;21.57;100.00;64234.75;5009177;28;20266;-75
2022/07/31 07:26:53;;;;;;;15.88;12.73;;;;;;;21.66;100.00;64244.66;5022163;28;20236;-75
2022/07/31 07:29:23;;;;;;;17.75;13.00;;;;;;;21.42;100.00;64219.59;5027461;28;20203;-77
2022/07/31 07:31:50;;;;;;;11.55;10.35;;;;;;;21.50;100.00;64225.34;5026147;28;20238;-75
2022/07/31 07:34:16;;;;;;;14.13;12.32;;;;;;;21.45;100.00;64214.94;5025589;28;20236;-76
2022/07/31 07:36:43;;;;;;;17.23;12.68;;;;;;;21.38;100.00;64212.31;5025574;28;20201;-76
2022/07/31 07:39:10;;;;;;;15.65;11.93;;;;;;;21.65;100.00;64240.50;5025196;28;20503;-75
2022/07/31 07:41:37;;;;;;;13.30;11.32;;;;;;;21.14;100.00;64189.84;5025156;28;20393;-76
2022/07/31 07:44:06;;;;;;;13.95;11.60;;;;;;;21.48;100.00;64220.16;5025003;28;20194;-76
2022/07/31 07:46:35;;;;;;;12.55;11.23;;;;;;;21.45;100.00;64225.31;5025087;28;20195;-76
2022/07/31 07:49:02;;;;;;;15.95;11.93;;;;;;;21.56;100.00;64229.03;5025640;28;20205;-75
2022/07/31 07:51:29;;;;;;;16.95;12.98;;;;;;;21.35;100.00;64209.69;5025803;28;20525;-77
2022/07/31 07:53:56;;;;;;;15.55;12.00;;;;;;;21.68;100.00;64248.81;5025774;28;20422;-77
2022/07/31 07:56:23;;;;;;;14.75;12.70;;;;;;;21.49;100.00;64221.19;5024480;28;20198;-76
2022/07/31 07:58:50;;;;;;;12.27;10.65;;;;;;;21.29;100.00;64203.44;5025499;28;20210;-77
2022/07/31 08:01:17;;;;;;;20.38;12.25;;;;;;;21.25;100.00;64196.66;5025581;28;20278;-76
2022/07/31 08:03:45;;;;;;;15.13;12.00;;;;;;;21.58;100.00;64233.19;5025382;28;20225;-77
2022/07/31 08:06:12;;;;;;;14.00;11.15;;;;;;;21.61;100.00;64234.25;5025159;28;20209;-77
2022/07/31 08:08:39;;;;;;;12.48;11.18;;;;;;;21.45;100.00;64217.53;5024577;28;20412;-76
2022/07/31 08:11:06;;;;;;;12.27;9.68;;;;;;;21.26;100.00;64202.88;5024456;28;20198;-76
2022/07/31 08:13:33;;;;;;;12.52;9.43;;;;;;;21.56;100.00;64231.09;5024549;28;20224;-77
2022/07/31 08:16:00;;;;;;;10.02;8.57;;;;;;;21.69;100.00;64247.81;5025034;28;20233;-76
2022/07/31 08:18:27;;;;;;;9.27;8.15;;;;;;;21.46;100.00;64216.00;5025523;28;20226;-75
2022/07/31 08:20:55;;;;;;;9.60;8.15;;;;;;;21.83;100.00;64256.22;5025374;28;20237;-77
2022/07/31 08:23:22;;;;;;;9.02;8.13;;;;;;;21.97;100.00;64273.97;5025221;28;20371;-77
2022/07/31 08:25:49;;;;;;;11.02;9.05;;;;;;;21.96;100.00;64272.41;5021498;28;20191;-75
2022/07/31 08:28:16;;;;;;;9.93;8.73;;;;;;;22.02;100.00;64281.78;5005915;28;20246;-77
2022/07/31 08:30:43;;;;;;;10.15;8.07;;;;;;;21.91;100.00;64270.28;5005505;28;20198;-78
2022/07/31 08:33:10;;;;;;;10.93;8.65;;;;;;;21.83;100.00;64261.41;5005229;28;20459;-76
2022/07/31 08:35:36;;;;;;;10.52;8.68;;;;;;;21.84;100.00;64262.44;5004716;28;20272;-77
2022/07/31 08:38:05;;;;;;;9.57;8.50;;;;;;;21.91;100.00;64267.69;5004826;28;20539;-77
2022/07/31 08:40:32;;;;;;;11.98;8.73;;;;;;;22.10;100.00;64284.44;5005185;28;20205;-78
2022/07/31 08:42:59;;;;;;;9.10;7.97;;;;;;;21.82;100.00;64260.88;5005083;28;20417;-76
2022/07/31 08:45:27;;;;;;;8.75;7.95;;;;;;;22.12;100.00;64286.53;5005088;28;20202;-77
2022/07/31 08:47:56;;;;;;;8.80;8.00;;;;;;;22.34;100.00;64320.44;5004843;28;20231;-77
2022/07/31 08:50:24;;;;;;;9.45;7.35;;;;;;;22.17;100.00;64292.28;5004352;28;20190;-76
2022/07/31 08:52:54;;;;;;;9.23;7.65;;;;;;;22.03;100.00;64282.84;5004837;28;20241;-77
2022/07/31 08:55:23;;;;;;;9.25;8.23;;;;;;;21.95;100.00;64271.34;5005267;28;20543;-78
2022/07/31 08:57:50;;;;;;;9.48;8.07;;;;;;;22.48;100.00;64326.75;5004750;28;20257;-76
2022/07/31 09:00:21;;;;;;;8.25;7.25;;;;;;;22.83;100.00;64363.38;5005280;28;20211;-77
2022/07/31 09:02:48;;;;;;;7.50;6.82;;;;;;;22.74;100.00;64348.75;5004699;28;20229;-77
2022/07/31 09:05:15;;;;;;;8.00;6.70;;;;;;;22.46;100.00;64322.06;5004151;28;20225;-76
2022/07/31 09:07:43;;;;;;;9.02;7.70;;;;;;;22.67;99.83;64344.03;5004254;28;20281;-78
2022/07/31 09:10:22;;;;;;;8.48;7.57;;;;;;;22.86;98.45;64371.69;5004711;28;20199;-77
2022/07/31 09:12:49;;;;;;;11.07;8.77;;;;;;;22.94;98.75;64380.06;5004410;28;20220;-78
2022/07/31 09:15:26;;;;;;;9.30;8.32;;;;;;;22.84;99.92;64364.41;5004437;28;20234;-76
2022/07/31 09:17:53;;;;;;;11.07;9.35;;;;;;;22.72;100.00;64351.88;5004502;28;20226;-77
2022/07/31 09:20:22;;;;;;;11.00;9.18;;;;;;;23.02;96.53;64385.81;5005095;28;20214;-77
2022/07/31 09:23:03;;;;;;;11.38;9.85;;;;;;;22.95;94.49;64378.53;5004286;28;20237;-76
2022/07/31 09:25:32;;;;;;;10.07;9.00;;;;;;;23.12;94.85;64393.69;5004531;28;20487;-77
2022/07/31 09:28:02;;;;;;;10.82;9.52;;;;;;;23.03;95.06;64386.88;5004365;28;20229;-77
2022/07/31 09:30:29;;;;;;;11.88;9.57;;;;;;;23.35;94.76;64414.66;5004480;28;20245;-75
2022/07/31 09:32:56;;;;;;;12.63;9.75;;;;;;;23.26;95.26;64410.94;5003914;28;20236;-77
2022/07/31 09:35:23;;;;;;;18.38;11.23;;;;;;;23.31;93.81;64413.59;5004130;28;20234;-78
2022/07/31 09:37:50;;;;;;;10.35;9.27;;;;;;;22.85;96.15;64365.44;5003666;28;20254;-77
2022/07/31 09:40:17;;;;;;;13.02;11.60;;;;;;;22.69;98.12;64349.25;5003898;28;20207;-77
2022/07/31 09:42:47;;;;;;;13.18;11.55;;;;;;;22.80;95.21;64360.22;5004275;28;20220;-78
2022/07/31 09:45:22;;;;;;;12.35;11.05;;;;;;;22.75;91.95;64357.59;5004469;28;20213;-79
2022/07/31 09:48:02;;;;;;;11.25;10.15;;;;;;;22.84;85.94;64367.53;5004196;28;20217;-77
2022/07/31 09:50:29;;;;;;;12.25;11.10;;;;;;;22.79;89.30;64359.19;5004379;28;20194;-77
2022/07/31 09:53:00;;;;;;;10.25;9.25;;;;;;;22.90;85.29;64373.28;5004150;28;20223;-76
2022/07/31 09:55:27;;;;;;;11.93;10.73;;;;;;;23.11;83.79;64390.03;5004259;28;20253;-78
2022/07/31 09:57:59;;;;;;;11.18;10.10;;;;;;;23.33;79.82;64420.34;5005023;28;20218;-78
2022/07/31 10:00:27;;;;;;;12.00;10.15;;;;;;;23.45;81.91;64430.81;5003939;28;20210;-77
2022/07/31 10:02:55;;;;;;;10.57;9.45;;;;;;;23.71;82.41;64454.91;5004515;28;20551;-77
2022/07/31 10:05:24;;;;;;;10.80;9.80;;;;;;;23.78;82.83;64464.84;5004514;28;20258;-77
2022/07/31 10:07:51;;;;;;;12.45;11.18;;;;;;;23.62;79.09;64443.44;5004006;28;20527;-79
2022/07/31 10:10:19;;;;;;;13.52;11.43;;;;;;;23.39;79.74;64419.34;5003731;28;20198;-77
2022/07/31 10:12:50;;;;;;;13.25;10.50;;;;;;;23.48;80.88;64431.38;5003813;28;20219;-80
2022/07/31 10:15:20;;;;;;;14.60;10.18;;;;;;;23.32;81.51;64419.84;5004818;28;20242;-77
2022/07/31 10:17:50;;;;;;;11.50;10.13;;;;;;;22.98;84.79;64373.84;5004534;28;20219;-77
2022/07/31 10:20:20;;;;;;;11.18;10.07;;;;;;;22.80;82.91;64360.22;5007793;28;20205;-77
2022/07/31 10:22:50;;;;;;;12.02;10.85;;;;;;;22.95;82.46;64375.41;5008818;28;20219;-77
2022/07/31 10:25:22;;;;;;;14.20;10.73;;;;;;;22.72;86.29;64349.78;5009281;28;20266;-78
2022/07/31 10:27:50;;;;;;;12.55;11.25;;;;;;;22.74;89.68;64351.88;5028886;28;20281;-76
2022/07/31 10:30:18;;;;;;;13.15;11.82;;;;;;;22.84;86.62;64359.75;5028141;28;20198;-78
2022/07/31 10:32:45;;;;;;;15.05;11.10;;;;;;;23.00;88.36;64380.63;5027156;28;20214;-77
2022/07/31 10:35:13;;;;;;;11.95;10.77;;;;;;;23.21;82.09;64405.19;5027485;28;20221;-77
2022/07/31 10:37:45;;;;;;;15.77;12.05;;;;;;;23.15;85.86;64393.69;5027379;28;20218;-78
2022/07/31 10:40:25;;;;;;;13.20;11.30;;;;;;;23.39;84.47;64419.34;5027891;28;20198;-77
2022/07/31 10:43:01;;;;;;;13.43;11.80;;;;;;;23.21;86.98;64400.50;5027911;28;20236;-77
2022/07/31 10:45:30;;;;;;;11.98;10.73;;;;;;;23.22;82.18;64398.44;5028484;28;20198;-77
2022/07/31 10:48:01;;;;;;;12.68;11.10;;;;;;;22.63;87.48;64345.03;5027740;28;20233;-76
2022/07/31 10:50:30;;;;;;;12.30;11.00;;;;;;;22.87;86.64;64368.06;5027983;28;20198;-78
2022/07/31 10:53:08;;;;;;;13.13;11.82;;;;;;;22.95;85.71;64373.31;5027633;28;20298;-76
2022/07/31 10:55:36;;;;;;;12.70;11.40;;;;;;;23.41;84.28;64426.13;5029005;28;20229;-76
2022/07/31 10:58:10;;;;;;;13.80;11.10;;;;;;;23.58;82.81;64438.72;5028399;28;20226;-77
2022/07/31 11:00:39;;;;;;;10.38;9.32;;;;;;;23.59;80.03;64440.28;5028206;28;20233;-76
2022/07/31 11:03:14;;;;;;;10.40;9.32;;;;;;;23.55;79.30;64432.97;5027335;28;20380;-76
2022/07/31 11:05:52;;;;;;;11.23;10.23;;;;;;;23.40;80.17;64420.41;5027319;28;20205;-75
2022/07/31 11:08:19;;;;;;;11.88;10.60;;;;;;;23.66;80.77;64449.69;5027451;28;20210;-77
2022/07/31 11:10:50;;;;;;;11.95;10.70;;;;;;;23.76;80.35;64460.16;5026880;28;20270;-77
2022/07/31 11:13:17;;;;;;;11.35;10.23;;;;;;;23.82;80.72;64461.22;5026437;28;20217;-76
2022/07/31 11:15:45;;;;;;;11.75;10.65;;;;;;;23.62;81.84;64448.09;5026420;28;20280;-77
2022/07/31 11:18:14;;;;;;;10.25;9.35;;;;;;;23.95;78.34;64482.63;5026676;28;20222;-79
2022/07/31 11:20:45;;;;;;;11.32;10.32;;;;;;;24.03;78.31;64485.81;5026326;28;20201;-77
2022/07/31 11:23:15;;;;;;;10.45;9.45;;;;;;;23.95;77.99;64477.44;5026091;28;20216;-77
2022/07/31 11:25:43;;;;;;;11.43;9.80;;;;;;;24.17;74.99;64503.06;5023111;28;20266;-78
2022/07/31 11:28:12;;;;;;;9.93;8.93;;;;;;;24.51;72.35;64540.75;5025996;28;20278;-76
2022/07/31 11:30:51;;;;;;;10.63;9.52;;;;;;;24.73;70.92;64564.31;5025591;28;20221;-77
2022/07/31 11:33:29;;;;;;;10.38;8.90;;;;;;;25.08;67.89;64601.00;5028078;28;20223;-77
2022/07/31 11:35:56;;;;;;;11.05;10.05;;;;;;;25.20;69.18;64613.03;5026151;28;20463;-78
2022/07/31 11:38:27;;;;;;;10.75;9.75;;;;;;;25.05;67.10;64594.72;5026650;28;20214;-77